Latest Coastal Weather Observations for Norfolk Island

IDN60701

Issued at 9:51 am EST Wednesday 4 May 2016 (issued every 10 minutes, with the page automatically refreshed every 10 minutes)

About coastal observations | Map of coastal stations | Coastal observations for NSW | Marine services | Other Formats
Station Details ID: 200288 Name: NORFOLK ISLAND AERO Lat: -29.04 Lon: 167.94 Height: 111.73 m
Data from the previous 72 hours. | See also: Recent months at Norfolk Island
Date/Time
EST
Temp

°C
Wind Pressure Rain
since 9am
mm
Weather Cloud Vis
km
Sea
Height
m
Swell
Dir
 
Speed
knots
Gust
knots
hPa Trend Height
m
Period
s
Dir
04/09:30am 22.8 NNE 10 16 1019.1 - 0.0 - Partly cloudy 9 - - - -
04/09:00am 22.7 NNE 9 15 1019.4 - 0.0 - Mostly clear 10 - - - -
04/08:30am 22.4 NNE 11 15 1019.1 - 0.0 - Mostly clear 10 - - - -
04/08:00am 22.0 NNE 11 18 1018.6 - 0.2 - Cloudy 10 - - - -
04/07:30am 21.7 NNE 13 18 1018.7 - 0.2 - Mostly clear 10 - - - -
04/07:00am 21.6 NNE 13 18 1018.3 - 0.2 Rain Mostly clear 10 - - - -
04/06:30am 21.6 NNE 10 15 1018.4 - 0.2 - Cloudy 10 - - - -
04/06:00am 21.5 NNE 12 17 1018.4 - 0.0 - Partly cloudy 10 - - - -
04/05:30am 21.7 NNE 13 19 1017.7 - 0.0 - Partly cloudy 10 - - - -
04/05:00am 21.6 NNE 11 18 1017.5 - 0.0 - - 10 - - - -
04/04:30am 21.6 NNE 10 16 1017.9 - 0.0 - - 10 - - - -
04/04:00am 21.6 NNE 9 12 1017.9 - 0.0 - - 10 - - - -
04/03:30am 21.6 NNE 9 14 1018.0 - 0.0 - - 10 - - - -
04/03:00am 21.5 NNE 9 15 1018.1 - 0.0 - - 10 - - - -
04/02:30am 21.6 NNE 9 13 1018.0 - 0.0 - - 10 - - - -
04/02:00am 21.5 NNE 8 12 1018.0 - 0.0 - - 10 - - - -
04/01:30am 21.6 NNE 8 12 1018.2 - 0.0 - - 10 - - - -
04/01:00am 21.6 NE 10 15 1018.3 - 0.0 - - 10 - - - -
04/12:30am 21.7 NNE 9 14 1018.6 - 0.0 - - 10 - - - -
04/12:00am 21.7 NNE 9 15 1018.7 - 0.0 - - 10 - - - -
 
Date/Time
EST
Temp

°C
Wind Pressure Rain
since 9am
mm
Weather Cloud Vis
km
Sea
Height
m
Swell
Dir
 
Speed
knots
Gust
knots
hPa Trend Height
m
Period
s
Dir
03/11:30pm 21.7 NE 10 14 1018.6 - 0.0 - Partly cloudy 10 - - - -
03/11:00pm 21.7 NE 10 17 1018.6 - 0.0 - - 10 - - - -
03/10:30pm 21.7 NE 10 16 1019.0 - 0.0 - Partly cloudy 10 - - - -
03/10:00pm 21.7 NE 10 14 1019.1 - 0.0 - Partly cloudy 10 - - - -
03/09:30pm 21.5 NE 9 11 1019.0 - 0.0 - - 10 - - - -
03/09:00pm 21.6 NE 10 16 1019.2 - 0.0 - Partly cloudy 10 - - - -
03/08:30pm 21.6 NE 9 14 1019.2 - 0.0 - - 10 - - - -
03/08:00pm 21.6 NE 10 14 1019.0 - 0.0 - - 10 - - - -
03/07:30pm 21.7 NE 9 15 1019.2 - 0.0 - - 10 - - - -
03/07:00pm 21.5 NE 10 15 1019.1 - 0.0 - - 10 - - - -
03/06:30pm 21.3 NE 10 14 1018.7 - 0.0 - Partly cloudy 10 - - - -
03/06:00pm 21.2 NE 10 14 1018.7 - 0.0 - - 10 - - - -
03/05:30pm 21.4 NE 10 14 1018.5 - 0.0 - - 10 - - - -
03/05:00pm 21.4 NE 10 15 1018.1 - 0.0 - - 10 - - - -
03/04:30pm 21.4 NE 9 14 1018.1 - 0.0 - - 10 - - - -
03/04:00pm 21.6 NE 9 14 1018.1 - 0.0 - - 10 - - - -
03/03:30pm 21.8 NE 10 15 1017.8 - 0.0 - - 10 - - - -
03/03:00pm 22.0 NE 10 15 1017.7 - 0.0 - Mostly clear 10 - - - -
03/02:30pm 22.1 NE 10 15 1017.7 - 0.0 - Mostly clear 10 - - - -
03/02:00pm 22.3 NE 11 16 1017.5 - 0.0 - Mostly clear 10 - - - -
03/01:30pm 22.5 NE 10 17 1018.0 - 0.0 - Mostly clear 10 - - - -
03/01:00pm 22.9 NE 10 16 1018.0 - 0.0 - Mostly clear 10 - - - -
03/12:30pm 23.4 NE 10 16 1018.2 - 0.0 - Mostly clear 10 - - - -
03/12:00pm 23.1 NE 10 16 1018.4 - 0.0 - Mostly clear 10 - - - -
03/11:30am 23.0 NE 13 16 1018.4 - 0.0 - Mostly clear 10 - - - -
03/11:00am 22.7 NE 14 19 1018.6 - 0.0 - Mostly clear 10 - - - -
03/10:30am 22.8 NNE 12 19 1019.4 - 0.0 - Mostly clear 10 - - - -
03/10:00am 23.3 NE 16 21 1019.8 - 0.0 - Mostly clear 10 - - - -
03/09:30am 22.9 NE 14 19 1020.1 - 0.0 - Mostly clear 10 - - - -
03/09:00am 23.0 NE 14 19 1020.6 - 0.0 - - 10 - - - -
03/08:30am 23.1 NE 14 18 1020.8 - 0.0 - - 10 - - - -
03/08:00am 22.8 NE 9 15 1021.0 - 0.2 - Mostly clear 10 - - - -
03/07:30am 22.3 NE 9 15 1020.9 - 0.2 - Mostly clear 10 - - - -
03/07:00am 21.4 NE 10 14 1021.0 - 0.2 - Mostly clear 10 - - - -
03/06:30am 21.4 NE 10 15 1020.8 - 0.2 - Partly cloudy 10 - - - -
03/06:00am 21.3 NE 12 17 1019.9 - 0.2 - Partly cloudy 10 - - - -
03/05:30am 21.2 NE 11 15 1019.9 - 0.2 - Partly cloudy 10 - - - -
03/05:00am 20.7 ENE 9 13 1019.5 - 0.2 - Mostly clear 10 - - - -
03/04:30am 20.7 ENE 8 11 1019.6 - 0.2 - Cloudy 10 - - - -
03/04:00am 20.7 ENE 9 12 1019.3 - 0.2 - Partly cloudy 10 - - - -
03/03:30am 20.9 NE 9 15 1019.1 - 0.2 - Cloudy 10 - - - -
03/03:00am 20.5 NE 10 15 1019.0 - 0.2 - Partly cloudy 10 - - - -
03/02:30am 20.3 ENE 6 8 1019.2 - 0.2 - Cloudy 10 - - - -
03/02:00am 20.5 NE 6 8 1019.3 - 0.2 - Mostly cloudy 10 - - - -
03/01:30am 20.9 NE 6 8 1020.0 - 0.0 - Partly cloudy 10 - - - -
03/01:00am 20.7 ENE 8 11 1020.1 - 0.0 - Partly cloudy 10 - - - -
03/12:30am 20.3 ENE 8 10 1020.4 - 0.0 - Partly cloudy 10 - - - -
03/12:00am 20.1 ENE 8 10 1020.9 - 0.0 - Partly cloudy 10 - - - -
 
Date/Time
EST
Temp

°C
Wind Pressure Rain
since 9am
mm
Weather Cloud Vis
km
Sea
Height
m
Swell
Dir
 
Speed
knots
Gust
knots
hPa Trend Height
m
Period
s
Dir
02/11:30pm 20.3 ENE 6 8 1021.4 - 0.0 - Partly cloudy 10 - - - -
02/11:00pm 20.5 ENE 9 13 1021.2 - 0.0 - Cloudy 10 - - - -
02/10:30pm 20.0 ENE 6 8 1021.7 - 0.0 - Partly cloudy 10 - - - -
02/10:00pm 20.2 ENE 8 14 1021.6 - 0.0 - Partly cloudy 10 - - - -
02/09:30pm 20.3 ENE 8 11 1021.7 - 0.0 - Partly cloudy 10 - - - -
02/09:00pm 20.4 ENE 7 10 1021.8 - 0.0 - Partly cloudy 10 - - - -
02/08:30pm 20.3 NE 5 6 1021.7 - 0.0 - Partly cloudy 10 - - - -
02/08:00pm 20.2 ENE 9 14 1021.3 - 0.0 - Partly cloudy 10 - - - -
02/07:30pm 19.8 E 7 8 1021.5 - 0.0 - Partly cloudy 10 - - - -
02/07:00pm 19.4 E 6 8 1021.6 - 0.0 - - 10 - - - -
02/06:30pm 19.8 E 9 11 1021.5 - 0.0 - - 10 - - - -
02/06:00pm 19.2 E 5 6 1021.7 - 0.0 - Partly cloudy 10 - - - -
02/05:30pm 19.2 E 6 7 1021.4 - 0.0 - - 10 - - - -
02/05:00pm 19.7 E 6 8 1021.1 - 0.0 - - 10 - - - -
02/04:30pm 20.1 ENE 7 8 1021.0 - 0.0 - Partly cloudy 10 - - - -
02/04:00pm 21.4 ENE 8 11 1020.6 - 0.0 - Partly cloudy 10 - - - -
02/03:30pm 21.8 ENE 7 10 1020.4 - 0.0 - Partly cloudy 10 - - - -
02/03:00pm 21.8 ENE 8 13 1020.3 - 0.0 - Mostly clear 10 - - - -
02/02:30pm 21.7 ENE 6 9 1020.2 - 0.0 - Mostly clear 10 - - - -
02/02:00pm 22.0 ENE 9 13 1019.8 - 0.0 - Mostly clear 10 - - - -
02/01:30pm 22.4 E 11 17 1019.9 - 0.0 - Mostly clear 10 - - - -
02/01:00pm 22.8 ENE 11 15 1019.9 - 0.0 - Partly cloudy 10 - - - -
02/12:30pm 23.3 ENE 12 17 1020.2 - 0.0 - Mostly clear 10 - - - -
02/12:00pm 23.5 ENE 11 16 1020.5 - 0.0 - Mostly clear 10 - - - -
02/11:30am 23.9 ENE 9 11 1021.0 - 0.0 - Mostly clear 10 - - - -
02/11:00am 23.3 NE 10 14 1021.0 - 0.0 - Mostly clear 10 - - - -
02/10:30am 23.4 ENE 13 18 1021.7 - 0.0 - Mostly clear 10 - - - -
02/10:00am 23.3 NE 12 16 1021.8 - 0.0 - Mostly clear 10 - - - -
02/09:30am 23.5 ENE 10 16 1022.5 - 0.0 - Mostly clear 10 - - - -
02/09:00am 23.6 ENE 10 15 1022.7 - 0.0 - Mostly clear 10 - - - -
02/08:30am 23.2 ENE 10 14 1022.8 - 0.0 - Mostly clear 10 - - - -
02/08:00am 22.7 ENE 10 14 1022.6 - 0.0 - Partly cloudy 10 - - - -
02/07:30am 22.4 ENE 9 11 1022.8 - 0.0 - Mostly clear 10 - - - -
02/07:00am 21.7 ENE 8 10 1022.7 - 0.0 - Mostly clear 10 - - - -
02/06:30am 21.0 ENE 7 10 1022.5 - 0.0 - - 10 - - - -
02/06:00am 19.9 ENE 5 7 1022.4 - 0.0 - Partly cloudy 10 - - - -
02/05:30am 18.7 ENE 4 5 1022.3 - 0.0 - Partly cloudy 10 - - - -
02/05:00am 18.5 ENE 4 5 1021.8 - 0.0 - Mostly clear 10 - - - -
02/04:30am 18.2 E 4 5 1021.6 - 0.0 - - 10 - - - -
02/04:00am 17.6 E 5 6 1021.3 - 0.0 - - 10 - - - -
02/03:30am 18.0 ENE 5 6 1021.3 - 0.0 - - 10 - - - -
02/03:00am 17.6 ENE 6 9 1021.3 - 0.0 - - 10 - - - -
02/02:30am 17.8 ENE 5 6 1021.2 - 0.0 - - 10 - - - -
02/02:00am 18.6 ENE 4 6 1021.0 - 0.0 - - 10 - - - -
02/01:30am 18.3 ENE 5 6 1021.6 - 0.0 - Partly cloudy 10 - - - -
02/01:00am 18.3 ENE 5 5 1022.0 - 0.0 - Partly cloudy 10 - - - -
02/12:30am 18.3 E 5 7 1022.3 - 0.0 - Partly cloudy 10 - - - -
02/12:00am 18.4 ENE 6 7 1022.7 - 0.0 - Partly cloudy 10 - - - -
 
Date/Time
EST
Temp

°C
Wind Pressure Rain
since 9am
mm
Weather Cloud Vis
km
Sea
Height
m
Swell
Dir
 
Speed
knots
Gust
knots
hPa Trend Height
m
Period
s
Dir
01/11:30pm 18.3 E 6 7 1023.1 - 0.0 - Partly cloudy 10 - - - -
01/11:00pm 19.5 ENE 6 8 1023.0 - 0.0 - Mostly clear 10 - - - -
01/10:30pm 19.4 E 7 11 1023.2 - 0.0 - Partly cloudy 10 - - - -
01/10:00pm 20.1 E 8 12 1023.4 - 0.0 - Partly cloudy 10 - - - -
01/09:30pm 20.2 E 10 14 1023.6 - 0.0 - Partly cloudy 10 - - - -
01/09:00pm 20.4 ENE 10 14 1023.7 - 0.0 - Partly cloudy 10 - - - -
01/08:30pm 20.6 E 11 14 1023.6 - 0.0 - Partly cloudy 10 - - - -
01/08:00pm 20.2 ENE 12 15 1023.4 - 0.0 - Mostly clear 10 - - - -
01/07:30pm 20.0 ENE 13 16 1023.6 - 0.0 - - 10 - - - -
01/07:00pm 19.9 ENE 11 14 1023.5 - 0.0 - - 10 - - - -
01/06:30pm 19.9 E 12 17 1023.2 - 0.0 - - 10 - - - -
01/06:00pm 20.1 ENE 11 16 1023.5 - 0.0 - - 10 - - - -
01/05:30pm 19.9 E 11 14 1023.3 - 0.0 - Partly cloudy 10 - - - -
01/05:00pm 20.0 E 11 15 1022.9 - 0.0 - Mostly clear 10 - - - -
01/04:30pm 20.0 E 9 14 1023.1 - 0.0 - - 10 - - - -
01/04:00pm 20.6 E 9 12 1022.7 - 0.0 - Partly cloudy 10 - - - -
01/03:30pm 21.7 E 11 15 1022.4 - 0.0 - Partly cloudy 10 - - - -
01/03:00pm 22.0 E 12 16 1022.2 - 0.0 - Partly cloudy 10 - - - -
01/02:30pm 22.3 E 11 15 1022.3 - 0.0 - Partly cloudy 10 - - - -
01/02:00pm 22.9 E 12 17 1022.2 - 0.0 - Mostly clear 10 - - - -
01/01:30pm 23.0 E 13 18 1022.4 - 0.0 - - 10 - - - -
01/01:00pm 23.2 E 14 18 1022.4 - 0.0 - Partly cloudy 10 - - - -
01/12:30pm 23.3 ENE 12 17 1022.6 - 0.0 - Partly cloudy 10 - - - -
01/12:00pm 23.3 E 15 19 1022.8 - 0.0 - Partly cloudy 10 - - - -
01/11:30am 23.6 E 15 21 1023.3 - 0.0 - - 10 - - - -
01/11:00am 23.9 E 14 19 1023.1 - 0.0 - Mostly clear 10 - - - -
01/10:30am 23.3 ENE 16 20 1023.9 - 0.0 - - 10 - - - -
01/10:00am 23.2 E 14 20 1024.3 - 0.0 - Partly cloudy 10 - - - -
01/09:30am 23.3 ENE 15 21 1024.6 - 0.0 - - 10 - - - -
01/09:00am 23.1 E 14 19 1024.7 - 0.0 - - 10 - - - -
01/08:30am 22.6 E 15 20 1024.8 - 0.0 - - 10 - - - -

Other Formats:

Comma delimited format used in spreadsheet applications
http://www.bom.gov.au/fwo/IDN60701/IDN60701.94996.axf

JavaScript Object Notation format (JSON) in row-major order
http://www.bom.gov.au/fwo/IDN60701/IDN60701.94996.json